sensor_id;sensor_type;location;lat;lon;timestamp;temperature;humidity
44069;DHT22;29738;51.234;5.484;2022-08-03T00:01:39;20.70;99.90
44069;DHT22;29738;51.234;5.484;2022-08-03T00:04:06;20.60;99.90
44069;DHT22;29738;51.234;5.484;2022-08-03T00:06:32;20.60;99.90
44069;DHT22;29738;51.234;5.484;2022-08-03T00:08:57;20.50;99.90
44069;DHT22;29738;51.234;5.484;2022-08-03T00:11:23;20.60;99.90
44069;DHT22;29738;51.234;5.484;2022-08-03T00:13:49;20.50;99.90
44069;DHT22;29738;51.234;5.484;2022-08-03T00:16:15;20.50;99.90
44069;DHT22;29738;51.234;5.484;2022-08-03T00:18:41;20.60;99.90
44069;DHT22;29738;51.234;5.484;2022-08-03T00:21:07;20.60;99.90
44069;DHT22;29738;51.234;5.484;2022-08-03T00:23:34;20.60;99.90
44069;DHT22;29738;51.234;5.484;2022-08-03T00:26:00;20.60;99.90
44069;DHT22;29738;51.234;5.484;2022-08-03T00:28:26;20.60;99.90
44069;DHT22;29738;51.234;5.484;2022-08-03T00:30:52;20.40;99.90
44069;DHT22;29738;51.234;5.484;2022-08-03T00:33:20;20.40;99.90
44069;DHT22;29738;51.234;5.484;2022-08-03T00:35:46;20.40;99.90
44069;DHT22;29738;51.234;5.484;2022-08-03T00:38:12;20.40;99.90
44069;DHT22;29738;51.234;5.484;2022-08-03T00:40:38;20.40;99.90
44069;DHT22;29738;51.234;5.484;2022-08-03T00:43:05;20.40;99.90
44069;DHT22;29738;51.234;5.484;2022-08-03T00:45:35;20.50;99.90
44069;DHT22;29738;51.234;5.484;2022-08-03T00:48:04;20.50;99.90
44069;DHT22;29738;51.234;5.484;2022-08-03T00:50:33;20.50;99.90
44069;DHT22;29738;51.234;5.484;2022-08-03T00:53:01;20.50;99.90
44069;DHT22;29738;51.234;5.484;2022-08-03T00:55:28;20.40;99.90
44069;DHT22;29738;51.234;5.484;2022-08-03T00:57:54;20.50;99.90
44069;DHT22;29738;51.234;5.484;2022-08-03T01:00:23;20.50;99.90
44069;DHT22;29738;51.234;5.484;2022-08-03T01:02:50;20.50;99.90
44069;DHT22;29738;51.234;5.484;2022-08-03T01:05:17;20.40;99.90
44069;DHT22;29738;51.234;5.484;2022-08-03T01:11:16;20.40;99.90
44069;DHT22;29738;51.234;5.484;2022-08-03T01:14:05;20.30;99.90
44069;DHT22;29738;51.234;5.484;2022-08-03T01:16:56;20.20;99.90
44069;DHT22;29738;51.234;5.484;2022-08-03T01:27:38;20.00;99.90
44069;DHT22;29738;51.234;5.484;2022-08-03T01:30:10;20.00;99.90
44069;DHT22;29738;51.234;5.484;2022-08-03T01:33:01;19.90;99.90
44069;DHT22;29738;51.234;5.484;2022-08-03T01:35:38;19.90;99.90
44069;DHT22;29738;51.234;5.484;2022-08-03T01:38:21;19.80;99.90
44069;DHT22;29738;51.234;5.484;2022-08-03T01:40:47;19.80;99.90
44069;DHT22;29738;51.234;5.484;2022-08-03T01:43:18;19.90;99.90
44069;DHT22;29738;51.234;5.484;2022-08-03T01:45:45;20.00;99.90
44069;DHT22;29738;51.234;5.484;2022-08-03T01:48:15;20.00;99.90
44069;DHT22;29738;51.234;5.484;2022-08-03T01:50:42;19.90;99.90
44069;DHT22;29738;51.234;5.484;2022-08-03T01:53:09;19.80;99.90
44069;DHT22;29738;51.234;5.484;2022-08-03T01:55:36;19.90;99.90
44069;DHT22;29738;51.234;5.484;2022-08-03T01:58:03;19.80;99.90
44069;DHT22;29738;51.234;5.484;2022-08-03T02:00:30;19.80;99.90
44069;DHT22;29738;51.234;5.484;2022-08-03T02:02:57;19.90;99.90
44069;DHT22;29738;51.234;5.484;2022-08-03T02:05:24;19.80;99.90
44069;DHT22;29738;51.234;5.484;2022-08-03T02:07:51;19.80;99.90
44069;DHT22;29738;51.234;5.484;2022-08-03T02:10:20;19.80;99.90
44069;DHT22;29738;51.234;5.484;2022-08-03T02:12:47;19.80;99.90
44069;DHT22;29738;51.234;5.484;2022-08-03T02:15:18;19.70;99.90
44069;DHT22;29738;51.234;5.484;2022-08-03T02:17:46;19.60;99.90
44069;DHT22;29738;51.234;5.484;2022-08-03T02:20:12;19.50;99.90
44069;DHT22;29738;51.234;5.484;2022-08-03T02:22:40;19.50;99.90
44069;DHT22;29738;51.234;5.484;2022-08-03T02:25:08;19.40;99.90
44069;DHT22;29738;51.234;5.484;2022-08-03T02:27:35;19.40;99.90
44069;DHT22;29738;51.234;5.484;2022-08-03T02:30:06;19.40;99.90
44069;DHT22;29738;51.234;5.484;2022-08-03T02:32:38;19.30;99.90
44069;DHT22;29738;51.234;5.484;2022-08-03T02:35:10;19.30;99.90
44069;DHT22;29738;51.234;5.484;2022-08-03T02:37:44;19.30;99.90
44069;DHT22;29738;51.234;5.484;2022-08-03T02:40:12;19.30;99.90
44069;DHT22;29738;51.234;5.484;2022-08-03T02:42:40;19.20;99.90
44069;DHT22;29738;51.234;5.484;2022-08-03T02:45:09;19.10;99.90
44069;DHT22;29738;51.234;5.484;2022-08-03T02:47:39;19.10;99.90
44069;DHT22;29738;51.234;5.484;2022-08-03T02:50:08;19.10;99.90
44069;DHT22;29738;51.234;5.484;2022-08-03T02:52:34;19.00;99.90
44069;DHT22;29738;51.234;5.484;2022-08-03T02:55:02;19.00;99.90
44069;DHT22;29738;51.234;5.484;2022-08-03T02:57:30;19.20;99.90
44069;DHT22;29738;51.234;5.484;2022-08-03T02:59:59;19.00;99.90
44069;DHT22;29738;51.234;5.484;2022-08-03T03:02:27;19.10;99.90
44069;DHT22;29738;51.234;5.484;2022-08-03T03:04:54;19.00;99.90
44069;DHT22;29738;51.234;5.484;2022-08-03T03:07:21;19.10;99.90
44069;DHT22;29738;51.234;5.484;2022-08-03T03:09:47;19.10;99.90
44069;DHT22;29738;51.234;5.484;2022-08-03T03:12:15;19.10;99.90
44069;DHT22;29738;51.234;5.484;2022-08-03T03:14:41;19.20;99.90
44069;DHT22;29738;51.234;5.484;2022-08-03T03:17:09;19.20;99.90
44069;DHT22;29738;51.234;5.484;2022-08-03T03:19:36;19.10;99.90
44069;DHT22;29738;51.234;5.484;2022-08-03T03:22:04;18.90;99.90
44069;DHT22;29738;51.234;5.484;2022-08-03T03:24:34;19.00;99.90
44069;DHT22;29738;51.234;5.484;2022-08-03T03:27:01;19.00;99.90
44069;DHT22;29738;51.234;5.484;2022-08-03T03:29:27;19.00;99.90
44069;DHT22;29738;51.234;5.484;2022-08-03T03:31:53;19.00;99.90
44069;DHT22;29738;51.234;5.484;2022-08-03T03:34:19;19.00;99.90
44069;DHT22;29738;51.234;5.484;2022-08-03T03:36:45;19.00;99.90
44069;DHT22;29738;51.234;5.484;2022-08-03T03:39:11;19.00;99.90
44069;DHT22;29738;51.234;5.484;2022-08-03T03:41:38;19.00;99.90
44069;DHT22;29738;51.234;5.484;2022-08-03T03:44:04;19.00;99.90
44069;DHT22;29738;51.234;5.484;2022-08-03T03:46:30;19.00;99.90
44069;DHT22;29738;51.234;5.484;2022-08-03T03:48:56;18.90;99.90
44069;DHT22;29738;51.234;5.484;2022-08-03T03:51:22;19.10;99.90
44069;DHT22;29738;51.234;5.484;2022-08-03T03:53:57;19.10;99.90
44069;DHT22;29738;51.234;5.484;2022-08-03T03:56:23;19.20;99.90
44069;DHT22;29738;51.234;5.484;2022-08-03T03:58:49;19.10;99.90
44069;DHT22;29738;51.234;5.484;2022-08-03T04:01:15;19.20;99.90
44069;DHT22;29738;51.234;5.484;2022-08-03T04:03:41;19.20;99.90
44069;DHT22;29738;51.234;5.484;2022-08-03T04:06:07;19.20;99.90
44069;DHT22;29738;51.234;5.484;2022-08-03T04:08:52;19.20;99.90
44069;DHT22;29738;51.234;5.484;2022-08-03T04:11:51;19.30;99.90
44069;DHT22;29738;51.234;5.484;2022-08-03T04:14:27;19.20;99.90
44069;DHT22;29738;51.234;5.484;2022-08-03T04:16:58;19.10;99.90
44069;DHT22;29738;51.234;5.484;2022-08-03T04:19:29;19.10;99.90
44069;DHT22;29738;51.234;5.484;2022-08-03T04:22:00;19.00;99.90
44069;DHT22;29738;51.234;5.484;2022-08-03T04:24:31;19.00;99.90
44069;DHT22;29738;51.234;5.484;2022-08-03T04:26:58;19.00;99.90
44069;DHT22;29738;51.234;5.484;2022-08-03T04:29:25;19.10;99.90
44069;DHT22;29738;51.234;5.484;2022-08-03T04:31:53;19.20;99.90
44069;DHT22;29738;51.234;5.484;2022-08-03T04:34:21;19.40;99.90
44069;DHT22;29738;51.234;5.484;2022-08-03T04:36:48;19.60;99.90
44069;DHT22;29738;51.234;5.484;2022-08-03T04:39:23;19.80;99.90
44069;DHT22;29738;51.234;5.484;2022-08-03T04:42:00;20.00;99.90
44069;DHT22;29738;51.234;5.484;2022-08-03T04:44:27;20.30;99.90
44069;DHT22;29738;51.234;5.484;2022-08-03T04:46:55;20.30;99.90
44069;DHT22;29738;51.234;5.484;2022-08-03T04:49:21;20.50;99.90
44069;DHT22;29738;51.234;5.484;2022-08-03T04:51:48;20.60;99.90
44069;DHT22;29738;51.234;5.484;2022-08-03T04:54:15;20.90;99.90
44069;DHT22;29738;51.234;5.484;2022-08-03T04:56:41;20.80;99.90
44069;DHT22;29738;51.234;5.484;2022-08-03T04:59:08;20.60;99.90
44069;DHT22;29738;51.234;5.484;2022-08-03T05:01:34;20.70;99.90
44069;DHT22;29738;51.234;5.484;2022-08-03T05:04:00;20.50;99.90
44069;DHT22;29738;51.234;5.484;2022-08-03T05:06:26;20.50;99.90
44069;DHT22;29738;51.234;5.484;2022-08-03T05:08:52;20.50;99.90
44069;DHT22;29738;51.234;5.484;2022-08-03T05:11:17;20.40;99.90
44069;DHT22;29738;51.234;5.484;2022-08-03T05:13:44;20.30;99.90
44069;DHT22;29738;51.234;5.484;2022-08-03T05:16:10;20.30;99.90
44069;DHT22;29738;51.234;5.484;2022-08-03T05:18:36;20.20;99.90
44069;DHT22;29738;51.234;5.484;2022-08-03T05:21:03;20.30;99.90
44069;DHT22;29738;51.234;5.484;2022-08-03T05:23:29;20.20;99.90
44069;DHT22;29738;51.234;5.484;2022-08-03T05:25:55;20.20;99.90
44069;DHT22;29738;51.234;5.484;2022-08-03T05:28:21;20.00;99.90
44069;DHT22;29738;51.234;5.484;2022-08-03T05:30:47;20.10;99.90
44069;DHT22;29738;51.234;5.484;2022-08-03T05:33:13;20.20;99.90
44069;DHT22;29738;51.234;5.484;2022-08-03T05:35:39;20.30;99.90
44069;DHT22;29738;51.234;5.484;2022-08-03T05:38:05;20.30;99.90
44069;DHT22;29738;51.234;5.484;2022-08-03T05:40:31;20.40;99.90
44069;DHT22;29738;51.234;5.484;2022-08-03T05:42:57;20.30;99.90
44069;DHT22;29738;51.234;5.484;2022-08-03T05:45:24;20.30;99.90
44069;DHT22;29738;51.234;5.484;2022-08-03T05:47:50;20.50;99.90
44069;DHT22;29738;51.234;5.484;2022-08-03T05:50:17;20.40;99.90
44069;DHT22;29738;51.234;5.484;2022-08-03T05:52:43;20.80;99.90
44069;DHT22;29738;51.234;5.484;2022-08-03T05:55:10;20.70;99.90
44069;DHT22;29738;51.234;5.484;2022-08-03T05:57:38;20.60;99.90
44069;DHT22;29738;51.234;5.484;2022-08-03T06:00:09;20.70;99.90
44069;DHT22;29738;51.234;5.484;2022-08-03T06:02:36;21.00;99.90
44069;DHT22;29738;51.234;5.484;2022-08-03T06:05:02;21.30;99.90
44069;DHT22;29738;51.234;5.484;2022-08-03T06:07:28;21.20;99.90
44069;DHT22;29738;51.234;5.484;2022-08-03T06:09:54;21.20;99.90
44069;DHT22;29738;51.234;5.484;2022-08-03T06:12:19;21.10;99.90
44069;DHT22;29738;51.234;5.484;2022-08-03T06:14:45;21.20;99.90
44069;DHT22;29738;51.234;5.484;2022-08-03T06:17:11;21.20;99.90
44069;DHT22;29738;51.234;5.484;2022-08-03T06:19:37;21.30;99.90
44069;DHT22;29738;51.234;5.484;2022-08-03T06:22:03;21.30;99.90
44069;DHT22;29738;51.234;5.484;2022-08-03T06:24:29;21.30;99.90
44069;DHT22;29738;51.234;5.484;2022-08-03T06:26:55;21.50;99.90
44069;DHT22;29738;51.234;5.484;2022-08-03T06:29:21;21.80;99.90
44069;DHT22;29738;51.234;5.484;2022-08-03T06:31:46;22.00;99.90
44069;DHT22;29738;51.234;5.484;2022-08-03T06:34:12;22.10;99.90
44069;DHT22;29738;51.234;5.484;2022-08-03T06:36:38;22.10;99.90
44069;DHT22;29738;51.234;5.484;2022-08-03T06:39:04;22.20;99.90
44069;DHT22;29738;51.234;5.484;2022-08-03T06:41:30;22.40;99.90
44069;DHT22;29738;51.234;5.484;2022-08-03T06:43:56;22.40;99.90
44069;DHT22;29738;51.234;5.484;2022-08-03T06:46:21;22.50;99.90
44069;DHT22;29738;51.234;5.484;2022-08-03T06:48:48;22.50;99.90
44069;DHT22;29738;51.234;5.484;2022-08-03T06:51:13;22.60;99.90
44069;DHT22;29738;51.234;5.484;2022-08-03T06:53:39;22.70;99.90
44069;DHT22;29738;51.234;5.484;2022-08-03T06:56:06;22.90;99.90
44069;DHT22;29738;51.234;5.484;2022-08-03T06:58:32;23.10;99.90
44069;DHT22;29738;51.234;5.484;2022-08-03T07:00:58;23.10;99.90
44069;DHT22;29738;51.234;5.484;2022-08-03T07:03:24;23.20;99.90
44069;DHT22;29738;51.234;5.484;2022-08-03T07:05:50;23.50;99.90
44069;DHT22;29738;51.234;5.484;2022-08-03T07:08:16;23.80;99.90
44069;DHT22;29738;51.234;5.484;2022-08-03T07:10:43;24.20;99.90
44069;DHT22;29738;51.234;5.484;2022-08-03T07:13:09;24.40;99.90
44069;DHT22;29738;51.234;5.484;2022-08-03T07:15:35;24.70;99.90
44069;DHT22;29738;51.234;5.484;2022-08-03T07:18:01;24.90;99.90
44069;DHT22;29738;51.234;5.484;2022-08-03T07:20:27;24.80;99.90
44069;DHT22;29738;51.234;5.484;2022-08-03T07:22:53;24.60;99.90
44069;DHT22;29738;51.234;5.484;2022-08-03T07:25:19;24.20;99.90
44069;DHT22;29738;51.234;5.484;2022-08-03T07:27:46;24.00;99.90
44069;DHT22;29738;51.234;5.484;2022-08-03T07:30:13;24.00;99.90
44069;DHT22;29738;51.234;5.484;2022-08-03T07:32:39;24.20;99.90
44069;DHT22;29738;51.234;5.484;2022-08-03T07:35:06;24.30;99.90
44069;DHT22;29738;51.234;5.484;2022-08-03T07:37:32;24.50;99.90
44069;DHT22;29738;51.234;5.484;2022-08-03T07:39:59;24.60;99.90
44069;DHT22;29738;51.234;5.484;2022-08-03T07:42:26;24.60;99.90
44069;DHT22;29738;51.234;5.484;2022-08-03T07:44:52;24.80;99.90
44069;DHT22;29738;51.234;5.484;2022-08-03T07:47:38;24.60;99.90
44069;DHT22;29738;51.234;5.484;2022-08-03T07:50:05;24.70;99.90
44069;DHT22;29738;51.234;5.484;2022-08-03T07:52:31;24.90;99.90
44069;DHT22;29738;51.234;5.484;2022-08-03T07:55:19;25.00;99.90
44069;DHT22;29738;51.234;5.484;2022-08-03T07:57:46;24.80;99.90
44069;DHT22;29738;51.234;5.484;2022-08-03T08:00:17;25.00;99.90
44069;DHT22;29738;51.234;5.484;2022-08-03T08:02:44;25.10;99.90
44069;DHT22;29738;51.234;5.484;2022-08-03T08:05:10;25.20;99.90
44069;DHT22;29738;51.234;5.484;2022-08-03T08:07:37;25.10;99.90
44069;DHT22;29738;51.234;5.484;2022-08-03T08:10:05;25.00;99.90
44069;DHT22;29738;51.234;5.484;2022-08-03T08:12:31;25.10;99.90
44069;DHT22;29738;51.234;5.484;2022-08-03T08:14:57;25.00;99.90
44069;DHT22;29738;51.234;5.484;2022-08-03T08:17:23;25.10;99.90
44069;DHT22;29738;51.234;5.484;2022-08-03T08:19:49;25.10;99.90
44069;DHT22;29738;51.234;5.484;2022-08-03T08:22:14;25.30;99.90
44069;DHT22;29738;51.234;5.484;2022-08-03T08:24:40;25.30;99.90
44069;DHT22;29738;51.234;5.484;2022-08-03T08:27:09;25.60;99.90
44069;DHT22;29738;51.234;5.484;2022-08-03T08:29:37;25.90;99.90
44069;DHT22;29738;51.234;5.484;2022-08-03T08:32:03;25.60;99.90
44069;DHT22;29738;51.234;5.484;2022-08-03T08:34:29;25.50;99.90
44069;DHT22;29738;51.234;5.484;2022-08-03T08:36:55;25.60;99.90
44069;DHT22;29738;51.234;5.484;2022-08-03T08:39:20;25.70;99.90
44069;DHT22;29738;51.234;5.484;2022-08-03T08:41:50;25.60;99.90
44069;DHT22;29738;51.234;5.484;2022-08-03T08:44:16;25.60;99.90
44069;DHT22;29738;51.234;5.484;2022-08-03T08:46:42;25.90;99.90
44069;DHT22;29738;51.234;5.484;2022-08-03T08:49:09;25.80;99.90
44069;DHT22;29738;51.234;5.484;2022-08-03T08:51:35;26.00;99.90
44069;DHT22;29738;51.234;5.484;2022-08-03T08:54:06;26.10;99.90
44069;DHT22;29738;51.234;5.484;2022-08-03T08:56:32;26.40;99.90
44069;DHT22;29738;51.234;5.484;2022-08-03T08:59:00;26.60;99.90
44069;DHT22;29738;51.234;5.484;2022-08-03T09:01:27;26.70;99.90
44069;DHT22;29738;51.234;5.484;2022-08-03T09:03:53;26.70;99.90
44069;DHT22;29738;51.234;5.484;2022-08-03T09:06:22;26.80;99.90
44069;DHT22;29738;51.234;5.484;2022-08-03T09:08:48;26.50;99.90
44069;DHT22;29738;51.234;5.484;2022-08-03T09:11:14;26.90;99.90
44069;DHT22;29738;51.234;5.484;2022-08-03T09:13:40;26.80;99.90
44069;DHT22;29738;51.234;5.484;2022-08-03T09:16:14;26.70;99.90
44069;DHT22;29738;51.234;5.484;2022-08-03T09:18:42;26.70;99.90
44069;DHT22;29738;51.234;5.484;2022-08-03T09:21:23;26.70;99.90
44069;DHT22;29738;51.234;5.484;2022-08-03T09:23:51;26.70;99.90
44069;DHT22;29738;51.234;5.484;2022-08-03T09:26:24;26.60;99.90
44069;DHT22;29738;51.234;5.484;2022-08-03T09:31:36;27.00;99.90
44069;DHT22;29738;51.234;5.484;2022-08-03T09:34:04;27.10;99.90
44069;DHT22;29738;51.234;5.484;2022-08-03T09:36:41;27.20;99.90
44069;DHT22;29738;51.234;5.484;2022-08-03T09:39:16;27.00;99.90
44069;DHT22;29738;51.234;5.484;2022-08-03T09:41:42;27.10;99.90
44069;DHT22;29738;51.234;5.484;2022-08-03T09:44:09;27.20;99.90
44069;DHT22;29738;51.234;5.484;2022-08-03T09:46:54;27.20;99.90
44069;DHT22;29738;51.234;5.484;2022-08-03T09:49:20;27.20;99.90
44069;DHT22;29738;51.234;5.484;2022-08-03T09:51:47;27.00;99.90
44069;DHT22;29738;51.234;5.484;2022-08-03T09:54:27;27.30;99.90
44069;DHT22;29738;51.234;5.484;2022-08-03T09:56:53;27.60;99.90
44069;DHT22;29738;51.234;5.484;2022-08-03T09:59:29;27.80;99.90
44069;DHT22;29738;51.234;5.484;2022-08-03T10:01:56;28.10;99.90
44069;DHT22;29738;51.234;5.484;2022-08-03T10:04:23;28.10;99.90
44069;DHT22;29738;51.234;5.484;2022-08-03T10:07:04;28.10;99.90
44069;DHT22;29738;51.234;5.484;2022-08-03T10:09:30;28.30;99.90
44069;DHT22;29738;51.234;5.484;2022-08-03T10:11:57;28.40;99.90
44069;DHT22;29738;51.234;5.484;2022-08-03T10:14:31;28.30;99.90
44069;DHT22;29738;51.234;5.484;2022-08-03T10:16:58;28.10;99.90
44069;DHT22;29738;51.234;5.484;2022-08-03T10:19:24;28.20;99.90
44069;DHT22;29738;51.234;5.484;2022-08-03T10:21:55;28.30;99.90
44069;DHT22;29738;51.234;5.484;2022-08-03T10:24:27;28.30;99.90
44069;DHT22;29738;51.234;5.484;2022-08-03T10:27:02;28.30;99.90
44069;DHT22;29738;51.234;5.484;2022-08-03T10:29:37;28.40;99.90
44069;DHT22;29738;51.234;5.484;2022-08-03T10:32:09;28.50;99.90
44069;DHT22;29738;51.234;5.484;2022-08-03T10:34:39;28.60;99.90
44069;DHT22;29738;51.234;5.484;2022-08-03T10:37:11;28.50;99.90
44069;DHT22;29738;51.234;5.484;2022-08-03T10:39:38;28.40;99.90
44069;DHT22;29738;51.234;5.484;2022-08-03T10:42:22;28.50;99.90
44069;DHT22;29738;51.234;5.484;2022-08-03T10:44:52;28.80;99.90
44069;DHT22;29738;51.234;5.484;2022-08-03T10:47:20;28.90;99.90
44069;DHT22;29738;51.234;5.484;2022-08-03T10:49:48;28.90;99.90
44069;DHT22;29738;51.234;5.484;2022-08-03T10:52:14;29.00;99.90
44069;DHT22;29738;51.234;5.484;2022-08-03T10:54:42;29.20;99.90
44069;DHT22;29738;51.234;5.484;2022-08-03T10:57:47;29.30;99.90
44069;DHT22;29738;51.234;5.484;2022-08-03T11:00:15;29.20;99.90
44069;DHT22;29738;51.234;5.484;2022-08-03T11:05:27;29.40;99.90
44069;DHT22;29738;51.234;5.484;2022-08-03T11:08:28;29.50;99.90
44069;DHT22;29738;51.234;5.484;2022-08-03T11:11:00;29.20;99.90
44069;DHT22;29738;51.234;5.484;2022-08-03T11:13:28;29.20;99.90
44069;DHT22;29738;51.234;5.484;2022-08-03T11:15:58;29.40;99.90
44069;DHT22;29738;51.234;5.484;2022-08-03T11:18:25;29.40;99.90
44069;DHT22;29738;51.234;5.484;2022-08-03T11:20:53;29.60;99.90
44069;DHT22;29738;51.234;5.484;2022-08-03T11:23:44;29.50;99.90
44069;DHT22;29738;51.234;5.484;2022-08-03T11:26:18;29.50;99.90
44069;DHT22;29738;51.234;5.484;2022-08-03T11:28:45;29.70;99.90
44069;DHT22;29738;51.234;5.484;2022-08-03T11:34:09;30.10;99.90
44069;DHT22;29738;51.234;5.484;2022-08-03T11:39:43;30.30;99.90
44069;DHT22;29738;51.234;5.484;2022-08-03T11:44:52;30.60;99.90
44069;DHT22;29738;51.234;5.484;2022-08-03T11:47:19;30.40;99.90
44069;DHT22;29738;51.234;5.484;2022-08-03T11:49:50;30.20;99.90
44069;DHT22;29738;51.234;5.484;2022-08-03T11:52:16;30.30;99.90
44069;DHT22;29738;51.234;5.484;2022-08-03T11:54:44;30.20;99.90
44069;DHT22;29738;51.234;5.484;2022-08-03T11:57:10;30.50;99.90
44069;DHT22;29738;51.234;5.484;2022-08-03T11:59:37;30.30;99.90
44069;DHT22;29738;51.234;5.484;2022-08-03T12:02:11;30.40;99.90
44069;DHT22;29738;51.234;5.484;2022-08-03T12:04:58;30.60;99.90
44069;DHT22;29738;51.234;5.484;2022-08-03T12:07:29;30.70;99.90
44069;DHT22;29738;51.234;5.484;2022-08-03T12:10:11;30.90;99.90
44069;DHT22;29738;51.234;5.484;2022-08-03T12:12:38;31.10;99.90
44069;DHT22;29738;51.234;5.484;2022-08-03T12:15:05;31.30;99.90
44069;DHT22;29738;51.234;5.484;2022-08-03T12:17:32;31.40;99.90
44069;DHT22;29738;51.234;5.484;2022-08-03T12:19:59;31.40;99.90
44069;DHT22;29738;51.234;5.484;2022-08-03T12:22:38;30.80;99.90
44069;DHT22;29738;51.234;5.484;2022-08-03T12:25:07;31.00;99.90
44069;DHT22;29738;51.234;5.484;2022-08-03T12:27:34;31.30;99.90
44069;DHT22;29738;51.234;5.484;2022-08-03T12:30:00;31.30;99.90
44069;DHT22;29738;51.234;5.484;2022-08-03T12:32:28;31.20;99.90
44069;DHT22;29738;51.234;5.484;2022-08-03T12:34:55;31.20;99.90
44069;DHT22;29738;51.234;5.484;2022-08-03T12:37:25;31.30;99.90
44069;DHT22;29738;51.234;5.484;2022-08-03T12:39:59;31.40;99.90
44069;DHT22;29738;51.234;5.484;2022-08-03T12:42:34;31.40;99.90
44069;DHT22;29738;51.234;5.484;2022-08-03T12:45:26;31.30;99.90
44069;DHT22;29738;51.234;5.484;2022-08-03T12:47:58;31.40;99.90
44069;DHT22;29738;51.234;5.484;2022-08-03T12:50:32;31.30;99.90
44069;DHT22;29738;51.234;5.484;2022-08-03T12:52:59;31.30;99.90
44069;DHT22;29738;51.234;5.484;2022-08-03T12:55:26;31.70;99.90
44069;DHT22;29738;51.234;5.484;2022-08-03T12:58:01;31.90;99.90
44069;DHT22;29738;51.234;5.484;2022-08-03T13:00:27;31.70;99.90
44069;DHT22;29738;51.234;5.484;2022-08-03T13:03:06;32.30;99.90
44069;DHT22;29738;51.234;5.484;2022-08-03T13:05:45;32.70;99.90
44069;DHT22;29738;51.234;5.484;2022-08-03T13:08:21;32.70;99.90
44069;DHT22;29738;51.234;5.484;2022-08-03T13:10:47;32.50;99.70
44069;DHT22;29738;51.234;5.484;2022-08-03T13:13:14;32.50;99.90
44069;DHT22;29738;51.234;5.484;2022-08-03T13:15:40;32.70;99.80
44069;DHT22;29738;51.234;5.484;2022-08-03T13:18:06;32.90;99.10
44069;DHT22;29738;51.234;5.484;2022-08-03T13:20:31;33.10;98.80
44069;DHT22;29738;51.234;5.484;2022-08-03T13:22:58;33.00;98.80
44069;DHT22;29738;51.234;5.484;2022-08-03T13:25:24;33.00;98.60
44069;DHT22;29738;51.234;5.484;2022-08-03T13:27:49;33.30;98.30
44069;DHT22;29738;51.234;5.484;2022-08-03T13:30:17;33.50;97.60
44069;DHT22;29738;51.234;5.484;2022-08-03T13:32:44;33.90;98.90
44069;DHT22;29738;51.234;5.484;2022-08-03T13:35:10;33.50;97.90
44069;DHT22;29738;51.234;5.484;2022-08-03T13:37:36;33.50;98.10
44069;DHT22;29738;51.234;5.484;2022-08-03T13:40:04;33.80;96.90
44069;DHT22;29738;51.234;5.484;2022-08-03T13:42:31;33.50;96.80
44069;DHT22;29738;51.234;5.484;2022-08-03T13:44:59;33.30;97.20
44069;DHT22;29738;51.234;5.484;2022-08-03T13:47:25;33.00;97.80
44069;DHT22;29738;51.234;5.484;2022-08-03T13:49:51;33.20;97.30
44069;DHT22;29738;51.234;5.484;2022-08-03T13:52:18;33.40;97.30
44069;DHT22;29738;51.234;5.484;2022-08-03T13:54:44;33.50;97.80
44069;DHT22;29738;51.234;5.484;2022-08-03T13:57:10;33.00;97.70
44069;DHT22;29738;51.234;5.484;2022-08-03T13:59:36;33.10;97.50
44069;DHT22;29738;51.234;5.484;2022-08-03T14:02:02;33.00;98.10
44069;DHT22;29738;51.234;5.484;2022-08-03T14:04:29;33.00;98.10
44069;DHT22;29738;51.234;5.484;2022-08-03T14:06:55;32.70;97.30
44069;DHT22;29738;51.234;5.484;2022-08-03T14:09:20;32.90;97.80
44069;DHT22;29738;51.234;5.484;2022-08-03T14:11:46;33.30;97.30
44069;DHT22;29738;51.234;5.484;2022-08-03T14:14:12;33.30;96.80
44069;DHT22;29738;51.234;5.484;2022-08-03T14:16:38;33.30;97.00
44069;DHT22;29738;51.234;5.484;2022-08-03T14:19:04;33.20;97.10
44069;DHT22;29738;51.234;5.484;2022-08-03T14:21:30;33.10;97.40
44069;DHT22;29738;51.234;5.484;2022-08-03T14:23:56;33.20;97.40
44069;DHT22;29738;51.234;5.484;2022-08-03T14:26:22;33.50;96.70
44069;DHT22;29738;51.234;5.484;2022-08-03T14:28:48;33.80;96.70
44069;DHT22;29738;51.234;5.484;2022-08-03T14:31:14;33.60;96.10
44069;DHT22;29738;51.234;5.484;2022-08-03T14:33:40;33.40;96.60
44069;DHT22;29738;51.234;5.484;2022-08-03T14:36:06;33.00;96.30
44069;DHT22;29738;51.234;5.484;2022-08-03T14:38:32;33.00;96.40
44069;DHT22;29738;51.234;5.484;2022-08-03T14:40:58;32.50;96.80
44069;DHT22;29738;51.234;5.484;2022-08-03T14:43:23;32.40;97.70
44069;DHT22;29738;51.234;5.484;2022-08-03T14:45:51;32.20;97.50
44069;DHT22;29738;51.234;5.484;2022-08-03T14:48:22;32.50;96.70
44069;DHT22;29738;51.234;5.484;2022-08-03T14:50:48;32.90;96.40
44069;DHT22;29738;51.234;5.484;2022-08-03T14:53:14;32.60;96.20
44069;DHT22;29738;51.234;5.484;2022-08-03T14:55:42;32.50;96.50
44069;DHT22;29738;51.234;5.484;2022-08-03T14:58:08;32.50;96.70
44069;DHT22;29738;51.234;5.484;2022-08-03T15:00:35;32.60;96.50
44069;DHT22;29738;51.234;5.484;2022-08-03T15:03:02;32.60;96.80
44069;DHT22;29738;51.234;5.484;2022-08-03T15:05:28;32.70;96.80
44069;DHT22;29738;51.234;5.484;2022-08-03T15:07:53;32.80;96.50
44069;DHT22;29738;51.234;5.484;2022-08-03T15:10:19;32.90;96.10
44069;DHT22;29738;51.234;5.484;2022-08-03T15:12:45;33.00;95.90
44069;DHT22;29738;51.234;5.484;2022-08-03T15:15:11;32.90;96.30
44069;DHT22;29738;51.234;5.484;2022-08-03T15:17:37;32.70;95.80
44069;DHT22;29738;51.234;5.484;2022-08-03T15:20:04;32.80;95.80
44069;DHT22;29738;51.234;5.484;2022-08-03T15:22:30;32.80;95.70
44069;DHT22;29738;51.234;5.484;2022-08-03T15:24:57;33.00;96.20
44069;DHT22;29738;51.234;5.484;2022-08-03T15:27:22;33.20;95.30
44069;DHT22;29738;51.234;5.484;2022-08-03T15:29:48;33.10;95.30
44069;DHT22;29738;51.234;5.484;2022-08-03T15:32:14;33.50;95.80
44069;DHT22;29738;51.234;5.484;2022-08-03T15:34:40;33.60;95.90
44069;DHT22;29738;51.234;5.484;2022-08-03T15:37:06;33.40;96.20
44069;DHT22;29738;51.234;5.484;2022-08-03T15:39:32;32.90;97.60
44069;DHT22;29738;51.234;5.484;2022-08-03T15:41:57;32.80;97.10
44069;DHT22;29738;51.234;5.484;2022-08-03T15:44:23;33.00;96.50
44069;DHT22;29738;51.234;5.484;2022-08-03T15:46:51;33.10;96.60
44069;DHT22;29738;51.234;5.484;2022-08-03T15:49:17;33.20;96.00
44069;DHT22;29738;51.234;5.484;2022-08-03T15:51:45;33.40;95.60
44069;DHT22;29738;51.234;5.484;2022-08-03T15:54:11;34.10;94.90
44069;DHT22;29738;51.234;5.484;2022-08-03T15:56:37;34.50;94.30
44069;DHT22;29738;51.234;5.484;2022-08-03T15:59:03;34.60;94.00
44069;DHT22;29738;51.234;5.484;2022-08-03T16:01:29;34.70;94.00
44069;DHT22;29738;51.234;5.484;2022-08-03T16:03:55;34.60;93.70